createdAt,value
2023-01-20T00:04:32.692Z,0.6
2023-01-20T00:14:34.859Z,0.5
2023-01-20T00:24:36.783Z,0.4
2023-01-20T00:34:39.098Z,0.4
2023-01-20T00:44:40.758Z,0.3
2023-01-20T00:54:42.816Z,0.2
2023-01-20T01:04:44.764Z,0.2
2023-01-20T01:14:47.248Z,0.2
2023-01-20T01:24:49.155Z,0.1
2023-01-20T01:44:53.113Z,0.2
2023-01-20T02:04:57.204Z,0.2
2023-01-20T02:14:59.688Z,0.1
2023-01-20T02:25:01.385Z,0.1
2023-01-20T02:35:03.437Z,0.1
2023-01-20T02:45:05.733Z,0
2023-01-20T02:55:07.626Z,0
2023-01-20T03:05:09.910Z,0
2023-01-20T03:15:11.913Z,0
2023-01-20T03:25:14.245Z,-0.1
2023-01-20T03:35:16.700Z,-0.1
2023-01-20T03:45:18.736Z,-0.1
2023-01-20T03:55:20.753Z,-0.1
2023-01-20T04:05:22.806Z,0
2023-01-20T04:15:24.806Z,0
2023-01-20T04:25:27.247Z,0
2023-01-20T04:35:29.643Z,-0.1
2023-01-20T04:45:31.567Z,-0.1
2023-01-20T04:55:33.906Z,0
2023-01-20T05:05:35.930Z,-0.1
2023-01-20T05:15:38.017Z,-0.1
2023-01-20T05:25:40.501Z,-0.1
2023-01-20T05:35:42.511Z,-0.1
2023-01-20T05:45:44.302Z,-0.1
2023-01-20T05:55:46.049Z,-0.1
2023-01-20T06:05:48.177Z,-0.1
2023-01-20T06:15:50.647Z,-0.1
2023-01-20T06:25:52.498Z,0
2023-01-20T06:35:54.414Z,-0.1
2023-01-20T06:45:56.319Z,-0.1
2023-01-20T06:55:58.052Z,0
2023-01-20T07:06:00.255Z,0
2023-01-20T08:06:12.726Z,0.2
2023-01-20T08:16:14.566Z,0.2
2023-01-20T08:36:18.678Z,0.2
2023-01-20T08:46:20.602Z,0.3
2023-01-20T08:56:22.450Z,0.4
2023-01-20T09:06:24.131Z,0.5
2023-01-20T09:16:26.610Z,0.6
2023-01-20T09:56:36.514Z,1
2023-01-20T10:06:38.776Z,1.1
2023-01-20T10:16:41.274Z,1
2023-01-20T10:26:43.293Z,1.1
2023-01-20T10:36:44.959Z,1.2
2023-01-20T10:46:47.483Z,1.3
2023-01-20T10:56:49.371Z,1.3
2023-01-20T11:06:51.143Z,1.3
2023-01-20T11:16:52.827Z,1.5
2023-01-20T11:36:57.380Z,1.4
2023-01-20T11:46:59.576Z,1.6
2023-01-20T11:57:01.774Z,1.7
2023-01-20T12:07:04.391Z,1.5
2023-01-20T12:37:10.869Z,1.6
2023-01-20T12:47:13.204Z,1.7
2023-01-20T12:57:15.391Z,1.9
2023-01-20T13:07:17.814Z,1.9
2023-01-20T13:17:19.879Z,1.9
2023-01-20T13:27:21.884Z,2.1
2023-01-20T13:37:24.310Z,2
2023-01-20T13:47:26.251Z,2
2023-01-20T13:57:28.662Z,2.2
2023-01-20T14:07:31.292Z,2.3
2023-01-20T14:27:35.901Z,2.1
2023-01-20T14:37:37.972Z,2
2023-01-20T14:57:42.056Z,2
2023-01-20T15:07:44.654Z,2
2023-01-20T15:17:46.859Z,1.9
2023-01-20T15:37:51.452Z,1.8
2023-01-20T15:47:53.703Z,1.8
2023-01-20T15:57:55.444Z,1.8
2023-01-20T16:07:57.325Z,1.7
2023-01-20T16:17:59.358Z,1.4
2023-01-20T16:28:01.954Z,1.3
2023-01-20T16:38:04.281Z,1.2
2023-01-20T16:48:06.029Z,0.9
2023-01-20T16:58:08.062Z,0.4
2023-01-20T17:08:10.125Z,0.4
2023-01-20T17:18:11.815Z,0.3
2023-01-20T17:28:13.608Z,0.1
2023-01-20T17:38:15.795Z,-0.1
2023-01-20T17:48:17.479Z,-0.4
2023-01-20T17:58:20.025Z,-0.4
2023-01-20T18:08:21.681Z,-0.3
2023-01-20T18:18:23.741Z,-0.5
2023-01-20T18:28:26.293Z,-0.6
2023-01-20T18:38:28.592Z,-0.7
2023-01-20T18:48:30.330Z,-0.7
2023-01-20T18:58:32.230Z,-0.7
2023-01-20T19:08:34.544Z,-0.8
2023-01-20T19:18:36.382Z,-1
2023-01-20T19:28:38.152Z,-1.1
2023-01-20T19:38:40.347Z,-1.1
2023-01-20T19:48:41.933Z,-1.2
2023-01-20T19:58:44.076Z,-1.5
2023-01-20T20:08:45.798Z,-1.5
2023-01-20T20:38:58.933Z,-2
2023-01-20T20:49:01.318Z,-2
2023-01-20T20:59:03.859Z,-2.1
2023-01-20T21:09:05.417Z,-2.3
2023-01-20T21:19:07.194Z,-2.2
2023-01-20T21:29:09.489Z,-2.4
2023-01-20T21:49:13.988Z,-2.1
2023-01-20T21:59:16.553Z,-2.3
2023-01-20T22:09:18.894Z,-2.5
2023-01-20T22:19:20.940Z,-2.6
2023-01-20T22:29:23.458Z,-2.6
2023-01-20T22:39:25.425Z,-2.7
2023-01-20T22:49:27.763Z,-2.9
2023-01-20T22:59:30.275Z,-3
2023-01-20T23:09:31.991Z,-2.8
2023-01-20T23:19:33.983Z,-2.9
2023-01-20T23:39:37.962Z,-3.1
2023-01-20T23:59:42.920Z,-3
